createdAt,value
2017-07-31T00:00:11.531Z,74.60
2017-07-31T00:02:39.123Z,75.40
2017-07-31T00:05:06.672Z,75.70
2017-07-31T00:07:34.219Z,75.90
2017-07-31T00:10:01.812Z,76.00
2017-07-31T00:12:29.404Z,75.50
2017-07-31T00:14:57.749Z,76.40
2017-07-31T00:17:25.298Z,76.40
2017-07-31T00:19:52.893Z,77.90
2017-07-31T00:22:20.446Z,78.40
2017-07-31T00:24:47.999Z,78.20
2017-07-31T00:27:15.584Z,78.50
2017-07-31T00:29:43.140Z,78.50
2017-07-31T00:32:10.931Z,77.80
2017-07-31T00:34:38.524Z,78.00
2017-07-31T00:37:06.082Z,78.10
2017-07-31T00:39:33.676Z,78.50
2017-07-31T00:42:01.239Z,78.80
2017-07-31T00:44:29.565Z,78.90
2017-07-31T00:46:57.144Z,78.80
2017-07-31T00:49:24.738Z,79.20
2017-07-31T00:51:53.065Z,79.80
2017-07-31T00:54:20.658Z,79.70
2017-07-31T00:56:48.249Z,79.40
2017-07-31T00:59:15.799Z,79.50
2017-07-31T01:01:43.390Z,79.40
2017-07-31T01:04:10.984Z,79.40
2017-07-31T01:06:38.532Z,79.90
2017-07-31T01:09:06.096Z,80.00
2017-07-31T01:11:33.672Z,80.40
2017-07-31T01:14:01.285Z,80.80
2017-07-31T01:16:28.842Z,81.30
2017-07-31T01:18:56.406Z,81.30
2017-07-31T01:21:23.984Z,81.30
2017-07-31T01:23:51.549Z,81.80
2017-07-31T01:26:19.139Z,82.60
2017-07-31T01:28:46.701Z,83.50
2017-07-31T01:31:15.286Z,83.60
2017-07-31T01:33:42.877Z,83.00
2017-07-31T01:36:10.426Z,82.70
2017-07-31T01:38:38.018Z,81.80
2017-07-31T01:41:05.567Z,81.80
2017-07-31T01:43:33.143Z,82.50
2017-07-31T01:46:00.721Z,82.40
2017-07-31T01:48:28.299Z,82.30
2017-07-31T01:50:55.885Z,82.80
2017-07-31T01:53:24.211Z,83.90
2017-07-31T01:55:51.783Z,83.10
2017-07-31T01:58:19.376Z,83.00
2017-07-31T02:00:47.702Z,82.40
2017-07-31T02:03:15.281Z,82.40
2017-07-31T02:05:42.849Z,82.60
2017-07-31T02:08:10.407Z,82.70
2017-07-31T02:10:37.984Z,82.60
2017-07-31T02:13:05.578Z,82.90
2017-07-31T02:15:33.169Z,82.70
2017-07-31T02:18:00.719Z,83.30
2017-07-31T02:20:28.266Z,82.90
2017-07-31T02:22:55.860Z,83.00
2017-07-31T02:25:23.422Z,83.20
2017-07-31T02:27:51.000Z,83.00
2017-07-31T02:30:18.615Z,83.70
2017-07-31T02:32:46.234Z,83.10
2017-07-31T02:35:14.618Z,84.60
2017-07-31T02:37:42.166Z,83.70
2017-07-31T02:40:09.774Z,84.20
2017-07-31T02:42:37.336Z,84.40
2017-07-31T02:45:04.871Z,84.00
2017-07-31T02:47:32.478Z,84.20
2017-07-31T02:50:00.024Z,84.40
2017-07-31T02:52:27.573Z,84.90
2017-07-31T02:54:55.166Z,84.70
2017-07-31T02:57:22.714Z,85.40
2017-07-31T02:59:50.263Z,85.00
2017-07-31T03:02:17.855Z,85.10
2017-07-31T03:04:45.432Z,84.70
2017-07-31T03:07:13.760Z,84.30
2017-07-31T03:09:41.353Z,84.20
2017-07-31T03:12:08.900Z,84.10
2017-07-31T03:14:36.492Z,84.70
2017-07-31T03:17:04.825Z,84.70
2017-07-31T03:19:32.383Z,84.10
2017-07-31T03:21:59.962Z,83.90
2017-07-31T03:24:27.585Z,84.10
2017-07-31T03:26:55.132Z,84.50
2017-07-31T03:29:22.680Z,84.40
2017-07-31T03:31:50.272Z,84.40
2017-07-31T03:34:17.821Z,84.80
2017-07-31T03:36:45.368Z,84.90
2017-07-31T03:39:12.963Z,84.90
2017-07-31T03:41:40.524Z,84.40
2017-07-31T03:44:08.087Z,84.50
2017-07-31T03:46:35.669Z,84.20
2017-07-31T03:49:03.244Z,84.00
2017-07-31T03:51:31.049Z,83.50
2017-07-31T03:53:58.686Z,83.70
2017-07-31T03:56:27.011Z,85.10
2017-07-31T03:58:54.589Z,85.10
2017-07-31T04:01:22.168Z,84.90
2017-07-31T04:03:49.730Z,84.10
2017-07-31T04:06:17.322Z,84.60
2017-07-31T04:08:44.871Z,84.10
2017-07-31T04:11:12.433Z,82.70
2017-07-31T04:13:40.012Z,81.90
2017-07-31T04:16:07.604Z,80.50
2017-07-31T04:18:35.166Z,80.00
2017-07-31T04:21:02.715Z,79.40
2017-07-31T04:23:30.306Z,77.50
2017-07-31T04:25:57.849Z,77.90
2017-07-31T04:28:25.432Z,76.90
2017-07-31T04:30:53.762Z,71.70
2017-07-31T04:33:21.339Z,71.90
2017-07-31T04:35:48.931Z,70.80
2017-07-31T04:38:17.259Z,68.10
2017-07-31T04:40:44.845Z,67.60
2017-07-31T04:43:12.399Z,67.10
2017-07-31T04:45:39.942Z,67.60
2017-07-31T04:48:07.525Z,66.10
2017-07-31T04:50:35.074Z,65.10
2017-07-31T04:53:02.651Z,64.80
2017-07-31T04:55:30.214Z,64.40
2017-07-31T04:57:57.838Z,63.90
2017-07-31T05:00:25.400Z,64.50
2017-07-31T05:02:52.963Z,64.80
2017-07-31T05:05:20.554Z,64.70
2017-07-31T05:07:48.103Z,64.70
2017-07-31T05:10:15.700Z,64.70
2017-07-31T05:12:44.024Z,65.40
2017-07-31T05:15:11.616Z,65.30
2017-07-31T05:17:39.168Z,65.80
2017-07-31T05:20:06.729Z,64.40
2017-07-31T05:22:34.306Z,64.30
2017-07-31T05:25:02.632Z,64.30
2017-07-31T05:27:30.227Z,64.10
2017-07-31T05:29:57.805Z,64.10
2017-07-31T05:32:26.147Z,63.30
2017-07-31T05:34:53.735Z,63.30
2017-07-31T05:37:21.287Z,63.70
2017-07-31T05:39:48.850Z,63.30
2017-07-31T05:42:16.448Z,63.10
2017-07-31T05:44:44.006Z,62.80
2017-07-31T05:47:11.583Z,63.80
2017-07-31T05:49:39.147Z,63.90
2017-07-31T05:52:06.725Z,63.10
2017-07-31T05:54:34.266Z,64.20
2017-07-31T05:57:01.864Z,63.80
2017-07-31T05:59:29.413Z,63.70
2017-07-31T06:01:57.830Z,63.00
2017-07-31T06:06:59.421Z,63.00
2017-07-31T06:09:27.015Z,63.10
2017-07-31T06:11:54.562Z,62.30
2017-07-31T06:14:22.127Z,62.10
2017-07-31T06:16:49.718Z,62.10
2017-07-31T06:19:17.281Z,62.10
2017-07-31T06:21:44.875Z,61.30
2017-07-31T06:24:12.438Z,61.80
2017-07-31T06:26:40.029Z,61.20
2017-07-31T06:29:07.591Z,61.90
2017-07-31T06:31:35.141Z,62.80
2017-07-31T06:34:02.735Z,63.40
2017-07-31T06:36:30.287Z,63.20
2017-07-31T06:38:58.149Z,63.00
2017-07-31T06:41:26.473Z,63.20
2017-07-31T06:43:54.066Z,63.00
2017-07-31T06:46:21.615Z,63.20
2017-07-31T06:48:49.208Z,62.10
2017-07-31T06:51:16.756Z,62.20
2017-07-31T06:53:44.334Z,62.20
2017-07-31T06:56:12.293Z,62.00
2017-07-31T06:58:39.865Z,62.70
2017-07-31T07:01:07.444Z,61.90
2017-07-31T07:03:35.035Z,60.10
2017-07-31T07:06:02.584Z,60.30
2017-07-31T07:08:31.138Z,59.70
2017-07-31T07:10:58.699Z,59.30
2017-07-31T07:13:26.249Z,59.50
2017-07-31T07:15:53.826Z,59.40
2017-07-31T07:18:21.463Z,59.50
2017-07-31T07:20:49.057Z,60.20
2017-07-31T07:23:16.935Z,60.00
2017-07-31T07:25:44.543Z,59.40
2017-07-31T07:28:12.092Z,59.10
2017-07-31T07:30:39.707Z,59.40
2017-07-31T07:33:07.312Z,59.70
2017-07-31T07:35:35.066Z,58.90
2017-07-31T07:38:02.611Z,59.00
2017-07-31T07:40:30.204Z,59.20
2017-07-31T07:42:57.782Z,58.10
2017-07-31T07:45:25.335Z,58.20
2017-07-31T07:47:52.923Z,58.20
2017-07-31T07:50:20.470Z,58.90
2017-07-31T07:52:48.020Z,58.30
2017-07-31T07:55:15.611Z,58.10
2017-07-31T07:57:43.939Z,56.60
2017-07-31T08:00:11.532Z,56.50
2017-07-31T08:02:39.080Z,57.00
2017-07-31T08:05:06.672Z,55.80
2017-07-31T08:07:35.001Z,55.90
2017-07-31T08:10:02.550Z,55.90
2017-07-31T08:12:30.141Z,56.10
2017-07-31T08:14:57.691Z,55.50
2017-07-31T08:17:25.253Z,55.50
2017-07-31T08:19:52.847Z,55.90
2017-07-31T08:22:21.359Z,55.50
2017-07-31T08:24:48.947Z,55.10
2017-07-31T08:27:16.494Z,54.90
2017-07-31T08:29:44.075Z,54.00
2017-07-31T08:32:11.621Z,53.70
2017-07-31T08:34:39.214Z,53.40
2017-07-31T08:37:06.784Z,54.10
2017-07-31T08:39:34.626Z,53.80
2017-07-31T08:42:02.986Z,53.60
2017-07-31T08:44:30.537Z,53.70
2017-07-31T08:46:58.147Z,54.30
2017-07-31T08:49:25.717Z,53.90
2017-07-31T08:51:53.326Z,53.60
2017-07-31T08:54:20.924Z,52.70
2017-07-31T08:56:48.488Z,52.50
2017-07-31T08:59:16.814Z,53.10
2017-07-31T09:01:44.397Z,53.00
2017-07-31T09:04:11.941Z,51.50
2017-07-31T09:06:39.536Z,51.90
2017-07-31T09:09:07.097Z,51.80
2017-07-31T09:11:34.689Z,51.50
2017-07-31T09:14:02.237Z,50.70
2017-07-31T09:16:30.595Z,50.90
2017-07-31T09:18:58.180Z,50.80
2017-07-31T09:21:26.502Z,50.80
2017-07-31T09:23:54.093Z,50.80
2017-07-31T09:26:21.673Z,50.20
2017-07-31T09:28:50.834Z,50.00
2017-07-31T09:31:18.418Z,49.90
2017-07-31T09:33:46.776Z,49.20
2017-07-31T09:36:14.368Z,49.20
2017-07-31T09:38:42.729Z,48.80
2017-07-31T09:41:10.290Z,48.80
2017-07-31T09:43:38.423Z,48.80
2017-07-31T09:46:07.801Z,49.10
2017-07-31T09:48:35.379Z,48.80
2017-07-31T09:51:02.966Z,50.10
2017-07-31T09:53:30.514Z,50.30
2017-07-31T09:55:58.112Z,49.10
2017-07-31T09:58:26.457Z,51.70
2017-07-31T10:00:54.003Z,51.60
2017-07-31T10:03:21.581Z,50.00
2017-07-31T10:05:49.138Z,51.50
2017-07-31T10:08:16.738Z,49.70
2017-07-31T10:10:44.298Z,48.30
2017-07-31T10:13:11.861Z,48.60
2017-07-31T10:15:40.219Z,47.10
2017-07-31T10:18:07.781Z,47.00
2017-07-31T10:20:35.330Z,46.60
2017-07-31T10:23:02.922Z,46.20
2017-07-31T10:25:31.251Z,47.80
2017-07-31T10:27:58.847Z,47.70
2017-07-31T10:30:26.407Z,48.00
2017-07-31T10:32:53.967Z,47.80
2017-07-31T10:35:21.545Z,50.50
2017-07-31T10:37:49.110Z,49.80
2017-07-31T10:40:16.673Z,49.10
2017-07-31T10:42:44.265Z,48.70
2017-07-31T10:45:11.872Z,49.90
2017-07-31T10:47:40.186Z,50.80
2017-07-31T10:50:07.751Z,50.30
2017-07-31T10:52:35.341Z,49.70
2017-07-31T10:55:02.889Z,50.10
2017-07-31T10:57:30.482Z,49.80
2017-07-31T10:59:58.030Z,49.50
2017-07-31T11:02:25.640Z,50.20
2017-07-31T11:04:53.201Z,48.40
2017-07-31T11:07:20.753Z,48.30
2017-07-31T11:09:49.069Z,47.60
2017-07-31T11:12:16.626Z,46.90
2017-07-31T11:14:44.222Z,47.50
2017-07-31T11:17:11.825Z,46.20
2017-07-31T11:19:39.387Z,46.60
2017-07-31T11:22:06.979Z,46.10
2017-07-31T11:24:34.528Z,46.20
2017-07-31T11:27:02.078Z,46.00
2017-07-31T11:29:29.668Z,46.80
2017-07-31T11:31:57.216Z,47.80
2017-07-31T11:34:24.771Z,47.10
2017-07-31T11:36:52.343Z,46.60
2017-07-31T11:39:19.893Z,47.30
2017-07-31T11:41:47.484Z,46.40
2017-07-31T11:44:15.810Z,46.00
2017-07-31T11:46:43.359Z,46.00
2017-07-31T11:49:10.953Z,45.00
2017-07-31T11:51:38.517Z,44.90
2017-07-31T11:54:06.079Z,44.60
2017-07-31T11:56:33.670Z,43.70
2017-07-31T11:59:02.029Z,43.80
2017-07-31T12:01:29.587Z,43.80
2017-07-31T12:03:57.146Z,42.40
2017-07-31T12:06:24.763Z,42.40
2017-07-31T12:08:52.930Z,43.10
2017-07-31T12:11:20.488Z,42.80
2017-07-31T12:13:48.086Z,41.30
2017-07-31T12:16:15.644Z,41.60
2017-07-31T12:18:44.203Z,40.80
2017-07-31T12:21:12.080Z,40.90
2017-07-31T12:23:39.638Z,42.10
2017-07-31T12:26:07.232Z,41.80
2017-07-31T12:28:34.808Z,41.90
2017-07-31T12:31:02.359Z,41.70
2017-07-31T12:33:30.212Z,40.50
2017-07-31T12:35:57.762Z,40.30
2017-07-31T12:38:25.351Z,40.10
2017-07-31T12:40:53.725Z,41.60
2017-07-31T12:43:22.053Z,42.00
2017-07-31T12:45:49.662Z,41.40
2017-07-31T12:48:17.993Z,41.20
2017-07-31T12:50:45.589Z,41.20
2017-07-31T12:53:13.146Z,40.40
2017-07-31T12:55:40.698Z,40.60
2017-07-31T12:58:08.286Z,39.90
2017-07-31T13:00:35.835Z,39.20
2017-07-31T13:03:03.384Z,39.00
2017-07-31T13:05:30.976Z,39.20
2017-07-31T13:07:59.288Z,40.10
2017-07-31T13:10:26.867Z,40.10
2017-07-31T13:12:54.430Z,39.30
2017-07-31T13:15:22.024Z,39.20
2017-07-31T13:17:50.352Z,39.20
2017-07-31T13:20:18.650Z,39.10
2017-07-31T13:22:46.226Z,39.10
2017-07-31T13:25:13.791Z,39.80
2017-07-31T13:27:41.382Z,39.80
2017-07-31T13:30:08.931Z,38.50
2017-07-31T13:32:37.290Z,40.20
2017-07-31T13:35:04.847Z,40.10
2017-07-31T13:37:32.401Z,39.70
2017-07-31T13:39:59.993Z,40.00
2017-07-31T13:42:28.319Z,41.00
2017-07-31T13:44:56.844Z,41.00
2017-07-31T13:47:25.201Z,39.80
2017-07-31T13:49:52.767Z,39.70
2017-07-31T13:52:20.357Z,39.70
2017-07-31T13:54:47.920Z,40.70
2017-07-31T13:57:15.483Z,39.90
2017-07-31T13:59:43.074Z,40.20
2017-07-31T14:02:10.624Z,40.90
2017-07-31T14:04:38.186Z,39.90
2017-07-31T14:07:06.413Z,40.20
2017-07-31T14:09:34.736Z,39.90
2017-07-31T14:12:02.315Z,39.90
2017-07-31T14:14:29.908Z,40.60
2017-07-31T14:16:58.235Z,40.60
2017-07-31T14:19:25.835Z,40.60
2017-07-31T14:21:54.172Z,40.40
2017-07-31T14:24:21.757Z,39.80
2017-07-31T14:26:49.316Z,40.20
2017-07-31T14:29:16.859Z,40.80
2017-07-31T14:31:44.446Z,40.60
2017-07-31T14:34:11.999Z,40.50
2017-07-31T14:36:39.584Z,41.60
2017-07-31T14:39:07.904Z,41.30
2017-07-31T14:41:35.504Z,41.00
2017-07-31T14:44:03.061Z,40.60
2017-07-31T14:46:30.607Z,41.00
2017-07-31T14:48:58.186Z,40.70
2017-07-31T14:51:25.748Z,39.60
2017-07-31T14:53:53.342Z,40.30
2017-07-31T14:56:20.904Z,41.00
2017-07-31T14:58:48.497Z,40.30
2017-07-31T15:01:16.046Z,40.30
2017-07-31T15:03:43.610Z,40.50
2017-07-31T15:06:11.200Z,40.00
2017-07-31T15:08:38.752Z,41.50
2017-07-31T15:11:06.346Z,42.10
2017-07-31T15:13:34.670Z,39.70
2017-07-31T15:16:02.216Z,39.60
2017-07-31T15:18:29.809Z,40.70
2017-07-31T15:20:57.364Z,40.80
2017-07-31T15:23:24.951Z,40.80
2017-07-31T15:25:52.513Z,41.30
2017-07-31T15:28:20.076Z,41.50
2017-07-31T15:30:48.494Z,41.90
2017-07-31T15:33:16.041Z,42.50
2017-07-31T15:35:43.633Z,41.60
2017-07-31T15:38:11.226Z,41.70
2017-07-31T15:40:38.789Z,41.50
2017-07-31T15:43:06.381Z,41.30
2017-07-31T15:45:34.770Z,41.40
2017-07-31T15:48:02.377Z,45.10
2017-07-31T15:50:29.969Z,44.60
2017-07-31T15:52:58.282Z,42.20
2017-07-31T15:55:25.831Z,42.20
2017-07-31T15:57:53.935Z,41.60
2017-07-31T16:00:21.481Z,41.70
2017-07-31T16:02:49.077Z,41.90
2017-07-31T16:05:16.641Z,44.10
2017-07-31T16:07:44.229Z,44.30
2017-07-31T16:10:11.778Z,45.10
2017-07-31T16:12:40.138Z,44.20
2017-07-31T16:15:07.697Z,44.30
2017-07-31T16:17:35.291Z,44.30
2017-07-31T16:20:02.853Z,45.40
2017-07-31T16:22:30.445Z,43.90
2017-07-31T16:24:58.009Z,43.90
2017-07-31T16:27:25.617Z,44.00
2017-07-31T16:29:53.182Z,44.10
2017-07-31T16:32:20.749Z,44.00
2017-07-31T16:34:48.334Z,44.40
2017-07-31T16:37:27.952Z,43.30
2017-07-31T16:39:55.537Z,42.30
2017-07-31T16:42:35.056Z,43.60
2017-07-31T16:45:02.651Z,43.80
2017-07-31T16:47:42.079Z,45.30
2017-07-31T16:50:24.553Z,43.70
2017-07-31T16:52:52.102Z,43.50
2017-07-31T16:55:20.489Z,42.50
2017-07-31T16:57:48.067Z,42.50
2017-07-31T17:00:15.630Z,42.20
2017-07-31T17:02:43.223Z,43.00
2017-07-31T17:05:10.786Z,43.20
2017-07-31T17:07:38.377Z,42.30
2017-07-31T17:10:07.352Z,40.30
2017-07-31T17:12:35.357Z,40.30
2017-07-31T17:15:03.515Z,43.50
2017-07-31T17:17:31.839Z,39.40
2017-07-31T17:19:59.423Z,39.40
2017-07-31T17:22:27.011Z,37.40
2017-07-31T17:24:55.340Z,38.70
2017-07-31T17:27:22.922Z,38.70
2017-07-31T17:29:50.478Z,41.10
2017-07-31T17:32:18.056Z,41.10
2017-07-31T17:34:45.607Z,39.50
2017-07-31T17:37:13.156Z,39.90
2017-07-31T17:39:40.747Z,39.10
2017-07-31T17:42:09.074Z,39.70
2017-07-31T17:44:37.642Z,39.70
2017-07-31T17:47:05.279Z,40.10
2017-07-31T17:49:33.702Z,40.40
2017-07-31T17:52:02.205Z,40.40
2017-07-31T17:54:30.623Z,44.70
2017-07-31T17:57:00.490Z,46.20
2017-07-31T17:59:29.368Z,46.20
2017-07-31T18:01:57.843Z,46.70
2017-07-31T18:04:26.613Z,46.50
2017-07-31T18:06:55.309Z,45.80
2017-07-31T18:09:26.080Z,42.90
2017-07-31T18:11:55.272Z,42.80
2017-07-31T18:14:25.378Z,42.30
2017-07-31T18:16:53.692Z,45.50
2017-07-31T18:19:21.261Z,47.80
2017-07-31T18:21:50.819Z,51.10
2017-07-31T18:24:19.366Z,50.50
2017-07-31T18:26:47.371Z,50.60
2017-07-31T18:29:16.604Z,51.70
2017-07-31T18:31:45.715Z,52.30
2017-07-31T18:34:14.808Z,51.10
2017-07-31T18:36:44.470Z,51.30
2017-07-31T18:39:12.576Z,51.60
2017-07-31T18:41:40.426Z,51.30
2017-07-31T18:44:08.329Z,52.10
2017-07-31T18:46:37.393Z,55.40
2017-07-31T18:49:05.006Z,55.40
2017-07-31T18:51:34.446Z,56.00
2017-07-31T18:54:02.679Z,55.60
2017-07-31T18:56:30.796Z,55.70
2017-07-31T18:58:58.359Z,56.30
2017-07-31T19:01:25.921Z,56.60
2017-07-31T19:03:53.515Z,56.20
2017-07-31T19:06:21.841Z,57.70
2017-07-31T19:08:49.394Z,57.70
2017-07-31T19:11:16.982Z,58.50
2017-07-31T19:13:44.531Z,59.00
2017-07-31T19:16:12.125Z,59.20
2017-07-31T19:18:39.672Z,59.20
2017-07-31T19:21:07.221Z,59.40
2017-07-31T19:23:35.653Z,59.50
2017-07-31T19:26:03.201Z,59.50
2017-07-31T19:28:31.576Z,59.10
2017-07-31T19:30:59.889Z,55.70
2017-07-31T19:33:27.437Z,55.70
2017-07-31T19:35:55.040Z,57.70
2017-07-31T19:38:24.348Z,59.00
2017-07-31T19:40:51.942Z,59.00
2017-07-31T19:43:20.277Z,60.40
2017-07-31T19:45:47.839Z,60.40
2017-07-31T19:48:16.102Z,60.10
2017-07-31T19:50:43.666Z,60.30
2017-07-31T19:53:11.964Z,59.80
2017-07-31T19:55:39.556Z,60.30
2017-07-31T19:58:07.873Z,60.60
2017-07-31T20:00:35.705Z,60.50
2017-07-31T20:03:03.745Z,60.60
2017-07-31T20:05:32.223Z,58.90
2017-07-31T20:07:59.787Z,58.10
2017-07-31T20:10:27.483Z,59.10
2017-07-31T20:12:55.032Z,62.00
2017-07-31T20:15:23.390Z,62.80
2017-07-31T20:17:50.937Z,62.80
2017-07-31T20:20:18.486Z,62.00
2017-07-31T20:22:46.080Z,60.50
2017-07-31T20:25:14.393Z,60.40
2017-07-31T20:27:41.939Z,60.40
2017-07-31T20:30:09.854Z,60.00
2017-07-31T20:32:37.411Z,61.90
2017-07-31T20:35:05.064Z,62.60
2017-07-31T20:37:32.605Z,64.70
2017-07-31T20:40:00.176Z,64.30
2017-07-31T20:42:27.768Z,64.00
2017-07-31T20:44:55.330Z,62.80
2017-07-31T20:47:22.882Z,61.20
2017-07-31T20:49:50.467Z,61.20
2017-07-31T20:52:18.019Z,61.40
2017-07-31T20:54:45.613Z,64.30
2017-07-31T20:57:13.175Z,64.40
2017-07-31T20:59:40.738Z,63.10
2017-07-31T21:02:08.332Z,63.20
2017-07-31T21:04:35.894Z,63.60
2017-07-31T21:07:03.447Z,65.10
2017-07-31T21:09:31.066Z,64.90
2017-07-31T21:11:58.614Z,65.60
2017-07-31T21:14:26.942Z,63.70
2017-07-31T21:16:54.534Z,63.60
2017-07-31T21:19:22.082Z,63.70
2017-07-31T21:21:49.661Z,63.70
2017-07-31T21:24:17.988Z,63.30
2017-07-31T21:26:45.582Z,63.30
2017-07-31T21:29:13.147Z,63.90
2017-07-31T21:31:40.732Z,65.40
2017-07-31T21:34:08.314Z,66.90
2017-07-31T21:36:36.379Z,66.60
2017-07-31T21:39:03.981Z,67.20
2017-07-31T21:41:31.544Z,67.30
2017-07-31T21:43:59.105Z,66.30
2017-07-31T21:46:26.684Z,67.50
2017-07-31T21:48:54.247Z,67.60
2017-07-31T21:51:21.833Z,67.90
2017-07-31T21:53:51.654Z,66.40
2017-07-31T21:56:19.201Z,66.40
2017-07-31T21:58:47.557Z,65.90
2017-07-31T22:01:15.136Z,65.80
2017-07-31T22:03:43.450Z,63.00
2017-07-31T22:06:11.043Z,63.00
2017-07-31T22:08:39.598Z,63.20
2017-07-31T22:11:07.794Z,63.00
2017-07-31T22:13:35.382Z,63.70
2017-07-31T22:16:02.958Z,64.30
2017-07-31T22:18:31.274Z,66.90
2017-07-31T22:21:04.447Z,66.80
2017-07-31T22:23:31.994Z,70.30
2017-07-31T22:25:59.575Z,71.40
2017-07-31T22:28:27.134Z,72.90
2017-07-31T22:30:54.728Z,74.20
2017-07-31T22:33:22.294Z,75.00
2017-07-31T22:35:49.841Z,73.90
2017-07-31T22:38:17.432Z,74.70
2017-07-31T22:40:45.758Z,78.30
2017-07-31T22:43:13.352Z,78.30
2017-07-31T22:45:40.914Z,79.30
2017-07-31T22:48:08.462Z,79.20
2017-07-31T22:50:36.055Z,80.40
2017-07-31T22:53:03.618Z,78.70
2017-07-31T22:55:31.165Z,81.90
2017-07-31T22:57:58.758Z,84.60
2017-07-31T23:00:26.307Z,84.30
2017-07-31T23:02:53.870Z,84.10
2017-07-31T23:05:21.462Z,85.30
2017-07-31T23:07:49.024Z,86.70
2017-07-31T23:10:16.618Z,86.30
2017-07-31T23:12:44.165Z,86.70
2017-07-31T23:15:11.759Z,85.50
2017-07-31T23:17:39.321Z,86.00
2017-07-31T23:20:06.885Z,89.50
2017-07-31T23:22:35.243Z,90.10
2017-07-31T23:25:03.571Z,90.50
2017-07-31T23:27:31.137Z,90.50
2017-07-31T23:29:58.724Z,90.50
2017-07-31T23:32:26.274Z,90.00
2017-07-31T23:34:53.866Z,90.20
2017-07-31T23:37:22.194Z,89.30
2017-07-31T23:39:49.757Z,89.30
2017-07-31T23:42:17.349Z,90.20
2017-07-31T23:44:44.899Z,90.30
2017-07-31T23:47:12.460Z,90.30
2017-07-31T23:49:40.052Z,91.20
2017-07-31T23:52:07.601Z,90.90
2017-07-31T23:54:35.975Z,90.30
2017-07-31T23:57:04.302Z,89.10
2017-07-31T23:59:31.849Z,89.60
